KLEB/LEB METAR and TAF weather

Enter ICAO airport designator
Station Type Date Time Source
KLEB METAR 2021/07/30 06:53 UTC NOAA

KLEB 300653Z AUTO A2968 RMK AO2 SLPNO PWINO


Station Type Date Time Source
KLEB Decoded METAR 2021/07/30 06:53 UTC NOAA

LEBANON MUNICIPAL AIRPORT, NH, United States (KLEB) 43-38N 072-18W 171M
Jul 30, 2021 - 02:53 AM EDT / 2021.07.30 0653 UTC
Pressure (altimeter): 29.68 in. Hg (1005 hPa)
ob: KLEB 300653Z AUTO A2968 RMK AO2 SLPNO PWINO
cycle: 7

Station Type Date Time Source
KLEB TAF 2021/07/30 06:42 UTC NOAA

TAF KLEB 300540Z 3006/3106 00000KT 1SM BR BKN002 OVC015
FM300800 00000KT 1/2SM FG OVC003
FM301000 00000KT 1SM BR OVC010
FM301300 31008KT P6SM BKN040
FM301800 32010G18KT P6SM BKN050
FM310000 30007KT P6SM FEW050
AMD NOT SKED

Example: see airport list